Friendship, MD (20758)

1:26 PM EST on November 28, 2014 (GMT -0500)
KK4GV | Change Station
CLOSE
Current Station
Personal Weather Station
Location: Friendship, MD
Elevation: 120 ft
Nearby Weather Stations

Elev 120 ft 38.75 °N, 76.60 °W | Updated 10 seconds ago

Partly Cloudy
Partly Cloudy
38.1 °F
Feels Like 38 °F
N
3.0
Wind Variable Wind from North
Gusts 10.0 mph

Today
High -- | Low -- °F
--% Chance of Precip.
Yesterday
High -- | Low -- °F
Precip. -- in
7:02 AM 4:45 PM
Waxing Crescent, 42% visible
Pressure 30.30 in
Visibility 10.0 miles
Clouds Few 3800 ft
Scattered Clouds 4700 ft
Windchill 38 °F
Dew Point 24 °F
Humidity 57%
Rainfall 0.00 in
Snow Depth Not available.
UV 2 out of 12
Pollen .10 out of 12
Air Quality Not available.
Flu Activity Not available.
METAR KADW 281758Z AUTO 31012KT 10SM FEW038 SCT047 03/M07 A3027 RMK AO2 SLP260 60000 T00271075 10035 20002 57012 $

More Conditions Fewer Conditions

Pressure 30.30 in
Visibility 10.0 miles
Clouds Few 3800 ft
Scattered Clouds 4700 ft
Windchill 38 °F
Dew Point 24 °F
Humidity 57%
Rainfall 0.00 in
Snow Depth Not available.
UV 2 out of 12
Pollen .10 out of 12
Air Quality Not available.
Flu Activity Not available.
METAR KADW 281758Z AUTO 31012KT 10SM FEW038 SCT047 03/M07 A3027 RMK AO2 SLP260 60000 T00271075 10035 20002 57012 $

More Conditions Fewer Conditions

10-Day Weather Forecast

Almanac

Astronomy

Nov. 28, 2014 Rise Set
Actual Time
Civil Twilight
Nautical Twilight
Astronomical Twilight
Moon
Length of Visible Light
Length of Day
Tomorrow will be .
, % of the Moon is Illuminated

Today's Extremes

State Highs State Lows

Community

WunderPhotos

Upload Photos

1,774,251 photos uploaded!

WunderBlogs® & News

Nearby

Air Quality

  Air Quality AQ Index Pollutant
Not available.

Snow Depth

Station Depth Elevation

Earthquake Activity

City Distance Mag. Time & Date
Minimum magnitude displayed is 2.5.

Coastal Water Temperatures

Place Temperature

Nearby Weather Stations